createdAt,value
2023-03-05T00:01:40.520Z,66.20
2023-03-05T00:04:12.933Z,65.97
2023-03-05T00:06:41.311Z,66.28
2023-03-05T00:09:09.625Z,66.36
2023-03-05T00:11:38.174Z,66.28
2023-03-05T00:14:06.759Z,66.27
2023-03-05T00:16:34.859Z,66.14
2023-03-05T00:19:03.265Z,66.23
2023-03-05T00:21:38.110Z,65.99
2023-03-05T00:24:10.738Z,66.36
2023-03-05T00:26:39.950Z,66.26
2023-03-05T00:29:22.029Z,66.60
2023-03-05T00:31:50.704Z,66.33
2023-03-05T00:34:19.843Z,66.25
2023-03-05T00:36:50.980Z,66.40
2023-03-05T00:39:20.750Z,66.53
2023-03-05T00:41:49.214Z,66.32
2023-03-05T00:44:17.558Z,66.38
2023-03-05T00:46:45.801Z,66.59
2023-03-05T00:49:13.904Z,66.32
2023-03-05T00:51:41.986Z,66.68
2023-03-05T00:54:10.683Z,66.76
2023-03-05T00:56:38.806Z,67.01
2023-03-05T00:59:06.874Z,67.06
2023-03-05T01:01:36.273Z,66.89
2023-03-05T01:04:04.673Z,66.79
2023-03-05T01:06:32.717Z,66.78
2023-03-05T01:09:00.773Z,66.91
2023-03-05T01:11:28.969Z,67.18
2023-03-05T01:13:57.010Z,67.12
2023-03-05T01:16:25.142Z,67.21
2023-03-05T01:18:53.457Z,67.31
2023-03-05T01:21:22.170Z,67.32
2023-03-05T01:23:50.327Z,67.54
2023-03-05T01:26:18.454Z,67.55
2023-03-05T01:28:46.659Z,67.61
2023-03-05T01:31:14.987Z,67.69
2023-03-05T01:33:45.960Z,67.66
2023-03-05T01:36:16.929Z,67.58
2023-03-05T01:38:47.795Z,67.89
2023-03-05T01:41:17.065Z,68.20
2023-03-05T01:43:46.723Z,68.34
2023-03-05T01:46:29.487Z,68.31
2023-03-05T01:49:13.940Z,68.34
2023-03-05T01:51:48.146Z,68.62
2023-03-05T01:54:19.510Z,68.49
2023-03-05T01:56:50.762Z,68.78
2023-03-05T01:59:19.624Z,69.01
2023-03-05T02:01:50.861Z,68.84
2023-03-05T02:04:21.603Z,68.90
2023-03-05T02:06:50.612Z,68.67
2023-03-05T02:09:23.450Z,68.83
2023-03-05T02:11:52.119Z,68.92
2023-03-05T02:14:21.149Z,69.19
2023-03-05T02:16:49.426Z,69.23
2023-03-05T02:19:17.839Z,69.42
2023-03-05T02:21:48.462Z,69.19
2023-03-05T02:24:19.366Z,69.24
2023-03-05T02:26:47.729Z,69.44
2023-03-05T02:29:20.789Z,69.56
2023-03-05T02:31:49.022Z,69.28
2023-03-05T02:34:17.113Z,69.65
2023-03-05T02:36:45.182Z,69.57
2023-03-05T02:39:13.691Z,69.62
2023-03-05T02:41:41.805Z,69.51
2023-03-05T02:44:09.920Z,69.32
2023-03-05T02:46:38.277Z,69.52
2023-03-05T02:49:06.351Z,69.33
2023-03-05T02:51:34.374Z,69.37
2023-03-05T02:54:02.522Z,69.74
2023-03-05T02:56:30.752Z,69.79
2023-03-05T02:58:58.780Z,69.86
2023-03-05T03:01:28.539Z,69.79
2023-03-05T03:03:56.773Z,70.15
2023-03-05T03:06:24.940Z,70.03
2023-03-05T03:08:53.046Z,69.82
2023-03-05T03:11:21.568Z,69.85
2023-03-05T03:13:49.748Z,69.79
2023-03-05T03:16:18.273Z,69.83
2023-03-05T03:18:48.689Z,69.96
2023-03-05T03:21:23.453Z,69.67
2023-03-05T03:23:51.714Z,69.81
2023-03-05T03:26:20.274Z,69.65
2023-03-05T03:28:48.335Z,69.81
2023-03-05T03:31:16.820Z,69.90
2023-03-05T03:33:45.569Z,69.97
2023-03-05T03:36:13.810Z,69.84
2023-03-05T03:38:41.957Z,69.80
2023-03-05T03:41:10.092Z,69.59
2023-03-05T03:43:38.328Z,69.88
2023-03-05T03:46:07.382Z,69.72
2023-03-05T03:48:36.186Z,69.54
2023-03-05T03:51:06.295Z,69.60
2023-03-05T03:53:34.420Z,69.45
2023-03-05T03:56:03.621Z,69.55
2023-03-05T03:58:32.323Z,69.45
2023-03-05T04:01:00.799Z,69.64
2023-03-05T04:03:29.114Z,69.45
2023-03-05T04:05:57.280Z,69.76
2023-03-05T04:08:25.828Z,69.55
2023-03-05T04:10:53.909Z,69.77
2023-03-05T04:13:21.994Z,69.65
2023-03-05T04:15:50.544Z,69.68
2023-03-05T04:18:18.726Z,69.99
2023-03-05T04:20:46.858Z,69.74
2023-03-05T04:23:15.595Z,69.76
2023-03-05T04:25:44.118Z,70.16
2023-03-05T04:28:12.890Z,69.89
2023-03-05T04:30:41.083Z,69.84
2023-03-05T04:33:09.156Z,70.11
2023-03-05T04:35:37.834Z,69.96
2023-03-05T04:38:06.028Z,69.93
2023-03-05T04:40:34.767Z,70.38
2023-03-05T04:43:03.538Z,70.08
2023-03-05T04:45:31.851Z,70.35
2023-03-05T04:48:00.668Z,70.48
2023-03-05T04:50:28.751Z,70.53
2023-03-05T04:52:56.907Z,70.55
2023-03-05T04:55:24.957Z,70.47
2023-03-05T04:57:53.016Z,70.33
2023-03-05T05:00:21.835Z,70.43
2023-03-05T05:02:51.555Z,70.13
2023-03-05T05:05:23.427Z,70.31
2023-03-05T05:07:56.732Z,70.41
2023-03-05T05:10:26.354Z,70.32
2023-03-05T05:12:54.635Z,70.50
2023-03-05T05:15:23.034Z,70.42
2023-03-05T05:17:51.200Z,70.64
2023-03-05T05:20:20.139Z,70.56
2023-03-05T05:22:48.344Z,70.74
2023-03-05T05:25:16.553Z,70.69
2023-03-05T05:27:44.639Z,71.01
2023-03-05T05:30:13.178Z,71.25
2023-03-05T05:32:41.273Z,71.22
2023-03-05T05:35:10.556Z,71.19
2023-03-05T05:37:38.693Z,71.39
2023-03-05T05:40:09.604Z,71.57
2023-03-05T05:42:37.842Z,71.79
2023-03-05T05:45:06.632Z,71.84
2023-03-05T05:47:34.642Z,72.19
2023-03-05T05:50:03.243Z,71.99
2023-03-05T05:52:31.376Z,72.05
2023-03-05T05:54:59.414Z,72.26
2023-03-05T05:57:27.469Z,72.21
2023-03-05T05:59:55.567Z,72.16
2023-03-05T06:02:23.692Z,72.16
2023-03-05T06:04:51.819Z,72.36
2023-03-05T06:07:19.884Z,72.58
2023-03-05T06:09:48.533Z,72.62
2023-03-05T06:12:16.817Z,72.32
2023-03-05T06:14:44.900Z,72.85
2023-03-05T06:17:16.923Z,72.59
2023-03-05T06:19:50.038Z,72.81
2023-03-05T06:22:18.138Z,72.46
2023-03-05T06:24:46.157Z,72.91
2023-03-05T06:27:14.236Z,72.54
2023-03-05T06:29:42.326Z,72.55
2023-03-05T06:32:10.558Z,72.39
2023-03-05T06:34:38.745Z,72.32
2023-03-05T06:37:06.800Z,72.22
2023-03-05T06:39:34.830Z,72.04
2023-03-05T06:42:03.093Z,71.89
2023-03-05T06:44:31.245Z,71.99
2023-03-05T06:46:59.335Z,72.11
2023-03-05T06:49:27.402Z,72.01
2023-03-05T06:51:55.487Z,72.05
2023-03-05T06:54:23.570Z,72.04
2023-03-05T06:56:51.574Z,71.95
2023-03-05T06:59:19.657Z,71.95
2023-03-05T07:01:48.541Z,71.99
2023-03-05T07:04:17.127Z,72.11
2023-03-05T07:06:45.837Z,71.85
2023-03-05T07:09:16.201Z,71.99
2023-03-05T07:11:44.447Z,72.10
2023-03-05T07:14:12.737Z,72.05
2023-03-05T07:16:40.916Z,71.90
2023-03-05T07:19:11.030Z,71.69
2023-03-05T07:21:40.118Z,71.87
2023-03-05T07:24:09.318Z,71.80
2023-03-05T07:26:37.339Z,71.96
2023-03-05T07:29:05.478Z,71.59
2023-03-05T07:31:33.880Z,71.79
2023-03-05T07:34:03.417Z,71.88
2023-03-05T07:36:31.740Z,71.73
2023-03-05T07:38:59.926Z,71.92
2023-03-05T07:41:28.049Z,71.77
2023-03-05T07:43:56.368Z,72.13
2023-03-05T07:46:28.810Z,71.88
2023-03-05T07:48:57.461Z,71.81
2023-03-05T07:51:27.176Z,71.84
2023-03-05T07:53:57.791Z,71.61
2023-03-05T07:56:32.170Z,72.05
2023-03-05T07:59:08.790Z,71.71
2023-03-05T08:01:37.638Z,71.86
2023-03-05T08:04:07.359Z,72.00
2023-03-05T08:06:35.490Z,72.06
2023-03-05T08:09:03.662Z,71.89
2023-03-05T08:11:31.716Z,71.99
2023-03-05T08:14:01.083Z,71.90
2023-03-05T08:16:29.342Z,72.06
2023-03-05T08:18:58.344Z,72.09
2023-03-05T08:21:33.844Z,72.30
2023-03-05T08:24:04.417Z,72.18
2023-03-05T08:26:35.514Z,72.33
2023-03-05T08:29:04.396Z,72.53
2023-03-05T08:31:33.169Z,72.28
2023-03-05T08:34:02.168Z,72.28
2023-03-05T08:36:30.582Z,72.66
2023-03-05T08:38:59.761Z,72.52
2023-03-05T08:41:28.363Z,72.49
2023-03-05T08:43:56.523Z,72.19
2023-03-05T08:46:24.636Z,72.32
2023-03-05T08:48:52.755Z,72.51
2023-03-05T08:51:25.906Z,72.18
2023-03-05T08:53:55.875Z,72.17
2023-03-05T08:56:23.953Z,72.40
2023-03-05T08:58:53.094Z,72.51
2023-03-05T09:01:22.708Z,72.73
2023-03-05T09:03:51.221Z,72.53
2023-03-05T09:06:19.508Z,72.69
2023-03-05T09:08:47.598Z,72.66
2023-03-05T09:11:15.784Z,72.90
2023-03-05T09:13:44.093Z,72.67
2023-03-05T09:16:15.656Z,72.67
2023-03-05T09:18:44.420Z,72.77
2023-03-05T09:21:17.091Z,72.82
2023-03-05T09:23:47.320Z,72.76
2023-03-05T09:26:19.443Z,72.85
2023-03-05T09:28:48.490Z,72.81
2023-03-05T09:31:17.946Z,72.82
2023-03-05T09:33:49.494Z,72.65
2023-03-05T09:36:27.431Z,72.69
2023-03-05T09:38:55.869Z,72.51
2023-03-05T09:41:45.720Z,72.51
2023-03-05T09:44:23.840Z,72.33
2023-03-05T09:46:56.919Z,72.02
2023-03-05T09:49:40.028Z,72.21
2023-03-05T09:52:38.294Z,72.25
2023-03-05T09:55:42.676Z,72.25
2023-03-05T09:58:35.951Z,72.08
2023-03-05T10:01:19.165Z,71.88
2023-03-05T10:04:25.670Z,71.98
2023-03-05T10:07:04.433Z,71.81
2023-03-05T10:10:03.036Z,71.89
2023-03-05T10:12:42.472Z,72.17
2023-03-05T10:15:16.982Z,72.11
2023-03-05T10:17:59.491Z,72.32
2023-03-05T10:20:50.518Z,72.32
2023-03-05T10:23:25.511Z,72.17
2023-03-05T10:26:12.892Z,71.88
2023-03-05T10:29:10.322Z,72.01
2023-03-05T10:31:50.917Z,72.09
2023-03-05T10:35:00.841Z,72.01
2023-03-05T10:37:34.761Z,71.69
2023-03-05T10:40:18.820Z,71.23
2023-03-05T10:43:03.470Z,71.24
2023-03-05T10:45:37.181Z,71.25
2023-03-05T10:48:12.858Z,71.19
2023-03-05T10:50:55.288Z,71.35
2023-03-05T10:53:32.513Z,71.14
2023-03-05T10:56:05.901Z,71.04
2023-03-05T10:58:34.140Z,70.69
2023-03-05T11:01:11.059Z,70.59
2023-03-05T11:03:48.389Z,70.41
2023-03-05T11:06:31.002Z,70.52
2023-03-05T11:09:18.124Z,70.45
2023-03-05T11:12:11.541Z,70.39
2023-03-05T11:14:59.407Z,70.23
2023-03-05T11:17:30.479Z,70.27
2023-03-05T11:20:27.205Z,70.42
2023-03-05T11:23:16.155Z,70.22
2023-03-05T11:25:56.455Z,70.25
2023-03-05T11:28:38.022Z,70.24
2023-03-05T11:31:16.628Z,69.98
2023-03-05T11:33:58.802Z,69.68
2023-03-05T11:36:26.975Z,69.26
2023-03-05T11:38:56.867Z,69.39
2023-03-05T11:41:30.714Z,69.60
2023-03-05T11:44:03.874Z,69.76
2023-03-05T11:46:41.530Z,69.98
2023-03-05T11:49:25.238Z,70.17
2023-03-05T11:52:02.360Z,70.17
2023-03-05T11:54:42.545Z,70.36
2023-03-05T11:57:15.304Z,70.50
2023-03-05T11:59:44.159Z,70.60
2023-03-05T12:02:20.997Z,70.72
2023-03-05T12:04:50.560Z,70.46
2023-03-05T12:07:34.445Z,70.43
2023-03-05T12:10:03.050Z,70.58
2023-03-05T12:12:42.130Z,70.38
2023-03-05T12:15:12.323Z,70.35
2023-03-05T12:18:15.855Z,70.38
2023-03-05T12:21:05.663Z,70.29
2023-03-05T12:24:25.489Z,70.25
2023-03-05T12:27:03.986Z,70.39
2023-03-05T12:29:45.798Z,70.03
2023-03-05T12:32:23.122Z,70.03
2023-03-05T12:35:05.995Z,70.11
2023-03-05T12:37:34.125Z,70.26
2023-03-05T12:40:20.672Z,70.42
2023-03-05T12:42:56.900Z,69.14
2023-03-05T12:45:35.066Z,68.91
2023-03-05T12:48:14.577Z,68.62
2023-03-05T12:50:50.272Z,68.56
2023-03-05T12:53:21.224Z,68.94
2023-03-05T12:56:22.516Z,68.82
2023-03-05T12:58:58.087Z,69.54
2023-03-05T13:01:33.211Z,69.74
2023-03-05T13:04:17.932Z,70.22
2023-03-05T13:07:02.947Z,71.11
2023-03-05T13:09:36.911Z,71.44
2023-03-05T13:12:29.082Z,71.49
2023-03-05T13:42:36.691Z,70.56
2023-03-05T13:46:21.581Z,70.52
2023-03-05T13:56:15.845Z,70.41
2023-03-05T13:58:53.476Z,70.45
2023-03-05T14:01:24.819Z,70.11
2023-03-05T14:03:56.867Z,69.56
2023-03-05T14:06:28.481Z,68.49
2023-03-05T14:09:07.000Z,68.49
2023-03-05T14:11:36.080Z,66.06
2023-03-05T14:14:14.890Z,65.65
2023-03-05T14:16:43.456Z,63.82
2023-03-05T14:19:37.808Z,64.01
2023-03-05T14:22:06.784Z,63.81
2023-03-05T14:24:35.036Z,64.01
2023-03-05T14:27:13.447Z,62.77
2023-03-05T14:29:46.631Z,63.78
2023-03-05T14:32:29.661Z,63.52
2023-03-05T14:35:02.643Z,63.48
2023-03-05T14:37:42.261Z,63.64
2023-03-05T14:40:13.132Z,64.93
2023-03-05T14:42:41.280Z,64.12
2023-03-05T14:45:18.902Z,64.76
2023-03-05T14:47:47.686Z,65.32
2023-03-05T14:50:19.415Z,65.80
2023-03-05T14:52:50.165Z,66.24
2023-03-05T14:55:21.922Z,66.11
2023-03-05T14:57:51.757Z,66.11
2023-03-05T15:00:24.174Z,66.36
2023-03-05T15:02:52.822Z,66.13
2023-03-05T15:05:21.439Z,66.33
2023-03-05T15:07:51.508Z,66.45
2023-03-05T15:10:23.303Z,66.84
2023-03-05T15:12:53.344Z,66.80
2023-03-05T15:15:30.428Z,66.94
2023-03-05T15:17:58.830Z,67.19
2023-03-05T15:20:29.341Z,66.90
2023-03-05T15:22:59.332Z,66.82
2023-03-05T15:25:28.886Z,67.09
2023-03-05T15:27:59.172Z,67.05
2023-03-05T15:30:47.609Z,67.17
2023-03-05T15:33:27.060Z,67.29
2023-03-05T15:36:08.944Z,67.29
2023-03-05T15:38:39.913Z,67.08
2023-03-05T15:41:09.232Z,66.99
2023-03-05T15:43:38.342Z,66.92
2023-03-05T15:46:07.172Z,66.57
2023-03-05T15:48:35.350Z,66.49
2023-03-05T15:51:07.174Z,66.50
2023-03-05T15:53:35.412Z,66.49
2023-03-05T15:56:03.503Z,66.53
2023-03-05T15:58:31.621Z,66.67
2023-03-05T16:00:59.961Z,66.57
2023-03-05T16:03:28.383Z,66.91
2023-03-05T16:05:56.781Z,66.26
2023-03-05T16:08:25.067Z,66.36
2023-03-05T16:10:55.088Z,66.23
2023-03-05T16:13:28.254Z,66.06
2023-03-05T16:15:58.146Z,66.02
2023-03-05T16:18:26.889Z,65.82
2023-03-05T16:20:55.684Z,65.86
2023-03-05T16:23:24.953Z,65.26
2023-03-05T16:26:06.236Z,65.37
2023-03-05T16:28:35.397Z,65.50
2023-03-05T16:31:04.210Z,65.69
2023-03-05T16:33:33.041Z,66.02
2023-03-05T16:36:19.736Z,65.92
2023-03-05T16:38:51.261Z,65.86
2023-03-05T16:41:23.192Z,65.64
2023-03-05T16:43:56.521Z,65.91
2023-03-05T16:46:29.928Z,66.10
2023-03-05T16:48:58.448Z,66.39
2023-03-05T16:51:28.380Z,66.47
2023-03-05T16:53:58.131Z,66.66
2023-03-05T16:56:28.000Z,66.86
2023-03-05T16:58:56.592Z,66.58
2023-03-05T17:01:24.901Z,66.61
2023-03-05T17:03:54.321Z,66.71
2023-03-05T17:06:30.548Z,66.89
2023-03-05T17:09:02.572Z,66.93
2023-03-05T17:11:31.309Z,66.84
2023-03-05T17:13:59.593Z,67.19
2023-03-05T17:16:27.966Z,66.99
2023-03-05T17:19:47.053Z,67.00
2023-03-05T17:27:24.791Z,67.68
2023-03-05T17:30:10.302Z,67.55
2023-03-05T17:32:41.573Z,67.64
2023-03-05T17:35:29.624Z,67.41
2023-03-05T17:37:58.512Z,67.17
2023-03-05T17:40:30.224Z,67.49
2023-03-05T17:43:03.230Z,67.30
2023-03-05T17:45:32.049Z,67.45
2023-03-05T17:48:01.641Z,67.77
2023-03-05T17:50:30.056Z,67.22
2023-03-05T17:52:58.240Z,67.22
2023-03-05T17:55:27.015Z,67.33
2023-03-05T17:57:55.639Z,67.32
2023-03-05T18:00:25.697Z,67.29
2023-03-05T18:02:54.453Z,67.31
2023-03-05T18:05:24.759Z,67.38
2023-03-05T18:07:53.589Z,67.31
2023-03-05T18:10:24.237Z,67.42
2023-03-05T18:12:53.778Z,67.23
2023-03-05T18:15:24.104Z,67.35
2023-03-05T18:17:52.757Z,67.26
2023-03-05T18:20:27.550Z,67.66
2023-03-05T18:22:56.466Z,67.64
2023-03-05T18:25:31.215Z,67.62
2023-03-05T18:28:08.922Z,67.56
2023-03-05T18:30:37.945Z,67.76
2023-03-05T18:33:08.031Z,67.65
2023-03-05T18:35:36.668Z,67.75
2023-03-05T18:38:04.814Z,67.68
2023-03-05T18:40:35.914Z,67.80
2023-03-05T18:43:04.438Z,67.43
2023-03-05T18:45:34.328Z,67.70
2023-03-05T18:48:02.478Z,67.51
2023-03-05T18:50:30.812Z,67.44
2023-03-05T18:52:58.995Z,67.77
2023-03-05T18:55:30.007Z,67.64
2023-03-05T18:57:58.324Z,67.60
2023-03-05T19:00:29.544Z,67.66
2023-03-05T19:02:58.902Z,67.64
2023-03-05T19:05:27.116Z,68.01
2023-03-05T19:07:56.658Z,67.85
2023-03-05T19:10:24.900Z,67.72
2023-03-05T19:13:05.741Z,67.73
2023-03-05T19:15:34.229Z,67.91
2023-03-05T19:18:02.490Z,67.75
2023-03-05T19:20:30.617Z,67.85
2023-03-05T19:22:58.817Z,67.76
2023-03-05T19:25:26.873Z,68.16
2023-03-05T19:27:55.183Z,67.95
2023-03-05T19:30:23.487Z,68.18
2023-03-05T19:32:54.603Z,68.30
2023-03-05T19:35:22.972Z,68.06
2023-03-05T19:37:51.326Z,68.03
2023-03-05T19:40:19.648Z,68.26
2023-03-05T19:42:47.780Z,67.94
2023-03-05T19:45:16.123Z,67.97
2023-03-05T19:47:44.258Z,68.19
2023-03-05T19:50:15.226Z,68.10
2023-03-05T19:52:43.309Z,68.00
2023-03-05T19:55:11.897Z,67.97
2023-03-05T19:57:40.061Z,67.96
2023-03-05T20:00:09.165Z,67.91
2023-03-05T20:02:37.412Z,68.27
2023-03-05T20:05:05.980Z,68.25
2023-03-05T20:07:34.192Z,68.34
2023-03-05T20:10:02.579Z,68.18
2023-03-05T20:12:31.248Z,67.99
2023-03-05T20:14:59.845Z,68.20
2023-03-05T20:17:30.462Z,67.97
2023-03-05T20:20:00.441Z,68.14
2023-03-05T20:22:34.072Z,68.22
2023-03-05T20:25:02.610Z,68.20
2023-03-05T20:27:30.723Z,68.12
2023-03-05T20:29:58.897Z,68.00
2023-03-05T20:32:27.217Z,68.25
2023-03-05T20:34:56.717Z,68.17
2023-03-05T20:37:31.622Z,68.30
2023-03-05T20:40:00.604Z,68.25
2023-03-05T20:42:29.238Z,68.44
2023-03-05T20:44:57.351Z,68.51
2023-03-05T20:47:40.652Z,68.52
2023-03-05T20:50:10.251Z,68.56
2023-03-05T20:52:38.746Z,68.68
2023-03-05T20:55:08.993Z,68.42
2023-03-05T20:57:37.256Z,68.65
2023-03-05T21:00:07.638Z,68.85
2023-03-05T21:02:36.059Z,68.86
2023-03-05T21:05:04.576Z,68.77
2023-03-05T21:07:32.843Z,68.85
2023-03-05T21:10:01.044Z,68.65
2023-03-05T21:12:30.008Z,68.69
2023-03-05T21:14:58.486Z,68.57
2023-03-05T21:17:26.610Z,68.74
2023-03-05T21:19:54.782Z,68.74
2023-03-05T21:22:23.065Z,68.58
2023-03-05T21:25:12.569Z,68.79
2023-03-05T21:27:40.815Z,68.90
2023-03-05T21:30:10.526Z,68.80
2023-03-05T21:32:38.791Z,69.08
2023-03-05T21:35:07.458Z,69.02
2023-03-05T21:37:42.451Z,69.10
2023-03-05T21:40:14.135Z,69.20
2023-03-05T21:42:43.921Z,69.27
2023-03-05T21:45:22.827Z,69.33
2023-03-05T21:47:52.767Z,69.23
2023-03-05T21:50:21.221Z,69.30
2023-03-05T21:52:50.437Z,69.23
2023-03-05T21:55:22.767Z,69.35
2023-03-05T21:57:50.980Z,69.32
2023-03-05T22:00:22.742Z,69.38
2023-03-05T22:02:51.021Z,69.33
2023-03-05T22:05:19.367Z,69.42
2023-03-05T22:07:47.425Z,69.40
2023-03-05T22:10:18.240Z,69.44
2023-03-05T22:13:11.427Z,69.52
2023-03-05T22:15:51.118Z,69.31
2023-03-05T22:18:29.953Z,69.45
2023-03-05T22:20:59.597Z,69.38
2023-03-05T22:23:34.620Z,69.50
2023-03-05T22:26:07.964Z,69.47
2023-03-05T22:28:38.947Z,69.41
2023-03-05T22:31:07.388Z,69.49
2023-03-05T22:33:35.858Z,69.49
2023-03-05T22:36:09.398Z,69.55
2023-03-05T22:38:37.633Z,69.52
2023-03-05T22:41:10.924Z,69.51
2023-03-05T22:43:39.637Z,69.64
2023-03-05T22:46:12.278Z,69.77
2023-03-05T22:48:40.838Z,69.81
2023-03-05T22:51:09.865Z,69.71
2023-03-05T22:53:39.034Z,69.83
2023-03-05T22:56:09.246Z,69.80
2023-03-05T22:58:38.122Z,69.83
2023-03-05T23:01:14.735Z,69.73
2023-03-05T23:03:43.284Z,69.84
2023-03-05T23:06:11.650Z,69.88
2023-03-05T23:08:39.750Z,69.93
2023-03-05T23:11:11.506Z,69.95
2023-03-05T23:13:40.873Z,69.99
2023-03-05T23:16:09.849Z,70.00
2023-03-05T23:18:38.329Z,70.07
2023-03-05T23:21:06.774Z,70.00
2023-03-05T23:23:35.037Z,70.00
2023-03-05T23:26:03.157Z,70.02
2023-03-05T23:28:31.455Z,69.96
2023-03-05T23:30:59.520Z,69.97
2023-03-05T23:33:27.605Z,70.14
2023-03-05T23:35:58.457Z,70.08
2023-03-05T23:38:29.014Z,70.07
2023-03-05T23:41:01.151Z,70.22
2023-03-05T23:43:30.751Z,70.20
2023-03-05T23:46:00.526Z,70.16
2023-03-05T23:48:30.891Z,70.24
2023-03-05T23:50:58.995Z,70.27
2023-03-05T23:53:29.631Z,70.34
2023-03-05T23:55:57.671Z,70.21
2023-03-05T23:58:26.040Z,70.19
